createdAt,value
2019-05-18T00:00:43.832Z,15.58
2019-05-18T00:01:43.880Z,15.59
2019-05-18T00:02:43.923Z,15.56
2019-05-18T00:03:43.946Z,15.59
2019-05-18T00:04:43.966Z,15.58
2019-05-18T00:05:44.014Z,15.53
2019-05-18T00:06:44.053Z,15.64
2019-05-18T00:07:44.085Z,15.58
2019-05-18T00:08:44.110Z,15.62
2019-05-18T00:09:44.206Z,15.62
2019-05-18T00:10:44.176Z,15.66
2019-05-18T00:11:44.219Z,15.64
2019-05-18T00:12:44.238Z,15.64
2019-05-18T00:13:44.276Z,15.55
2019-05-18T00:14:44.312Z,15.58
2019-05-18T00:15:44.355Z,15.51
2019-05-18T00:16:44.385Z,15.51
2019-05-18T00:17:44.426Z,15.49
2019-05-18T00:18:44.449Z,15.53
2019-05-18T00:19:44.515Z,15.52
2019-05-18T00:20:44.518Z,15.55
2019-05-18T00:21:44.585Z,15.48
2019-05-18T00:22:44.588Z,15.44
2019-05-18T00:23:44.639Z,15.44
2019-05-18T00:24:44.654Z,15.43
2019-05-18T00:25:44.678Z,15.44
2019-05-18T00:26:44.731Z,15.48
2019-05-18T00:27:44.744Z,15.41
2019-05-18T00:28:44.786Z,15.44
2019-05-18T00:29:44.811Z,15.53
2019-05-18T00:30:44.869Z,15.46
2019-05-18T00:31:44.887Z,15.43
2019-05-18T00:32:44.921Z,15.43
2019-05-18T00:33:44.941Z,15.40
2019-05-18T00:34:44.987Z,15.38
2019-05-18T00:35:45.014Z,15.44
2019-05-18T00:36:45.056Z,15.37
2019-05-18T00:37:45.088Z,15.41
2019-05-18T00:38:45.120Z,15.34
2019-05-18T00:39:45.158Z,15.41
2019-05-18T00:40:45.185Z,15.35
2019-05-18T00:41:45.652Z,15.37
2019-05-18T00:42:45.255Z,15.38
2019-05-18T00:43:45.274Z,15.34
2019-05-18T00:44:45.321Z,15.37
2019-05-18T00:45:45.347Z,15.33
2019-05-18T00:46:45.391Z,15.28
2019-05-18T00:47:45.429Z,15.34
2019-05-18T00:48:45.456Z,15.28
2019-05-18T00:49:45.482Z,15.22
2019-05-18T00:50:45.520Z,15.20
2019-05-18T00:51:45.563Z,15.23
2019-05-18T00:52:45.587Z,15.28
2019-05-18T00:53:45.620Z,15.19
2019-05-18T00:54:45.665Z,15.19
2019-05-18T00:55:45.682Z,15.25
2019-05-18T00:56:45.714Z,15.13
2019-05-18T00:57:45.758Z,15.11
2019-05-18T00:58:45.793Z,15.13
2019-05-18T00:59:45.822Z,15.15
2019-05-18T01:00:45.849Z,15.04
2019-05-18T01:01:45.892Z,15.13
2019-05-18T01:02:45.914Z,15.11
2019-05-18T01:03:45.956Z,15.12
2019-05-18T01:04:45.985Z,15.05
2019-05-18T01:05:46.021Z,15.03
2019-05-18T01:06:46.065Z,15.12
2019-05-18T01:07:46.090Z,15.01
2019-05-18T01:08:46.119Z,15.04
2019-05-18T01:09:46.154Z,15.00
2019-05-18T01:10:46.208Z,15.00
2019-05-18T01:11:46.237Z,15.04
2019-05-18T01:12:46.249Z,15.04
2019-05-18T01:13:46.287Z,14.95
2019-05-18T01:14:46.316Z,14.93
2019-05-18T01:15:46.342Z,14.97
2019-05-18T01:16:46.390Z,14.98
2019-05-18T01:17:56.920Z,15.01
2019-05-18T01:18:46.460Z,14.91
2019-05-18T01:19:46.475Z,15.01
2019-05-18T01:20:46.521Z,14.93
2019-05-18T01:21:46.558Z,14.95
2019-05-18T01:22:46.585Z,14.82
2019-05-18T01:23:46.621Z,14.93
2019-05-18T01:24:46.651Z,14.85
2019-05-18T01:25:46.674Z,14.95
2019-05-18T01:26:46.725Z,14.86
2019-05-18T01:27:46.744Z,14.91
2019-05-18T01:28:46.783Z,14.90
2019-05-18T01:29:46.820Z,14.85
2019-05-18T01:30:46.845Z,14.79
2019-05-18T01:31:46.884Z,14.83
2019-05-18T01:32:46.915Z,14.82
2019-05-18T01:33:46.948Z,14.75
2019-05-18T01:34:46.985Z,14.80
2019-05-18T01:35:47.012Z,14.82
2019-05-18T01:36:47.052Z,14.75
2019-05-18T01:37:47.082Z,14.80
2019-05-18T01:38:47.114Z,14.80
2019-05-18T01:39:47.148Z,14.79
2019-05-18T01:40:47.222Z,14.78
2019-05-18T01:41:47.217Z,14.75
2019-05-18T01:42:47.253Z,14.75
2019-05-18T01:43:47.269Z,14.66
2019-05-18T01:44:47.308Z,14.69
2019-05-18T01:45:47.340Z,14.64
2019-05-18T01:46:47.383Z,14.67
2019-05-18T01:47:47.401Z,14.72
2019-05-18T01:48:47.437Z,14.71
2019-05-18T01:49:47.483Z,14.71
2019-05-18T01:50:47.538Z,14.71
2019-05-18T01:51:47.547Z,14.74
2019-05-18T01:52:47.578Z,14.61
2019-05-18T01:53:47.611Z,14.66
2019-05-18T01:54:47.644Z,14.60
2019-05-18T01:55:47.676Z,14.64
2019-05-18T01:56:47.710Z,14.57
2019-05-18T01:57:47.742Z,14.57
2019-05-18T01:58:47.779Z,14.59
2019-05-18T01:59:47.809Z,14.66
2019-05-18T02:00:47.838Z,14.60
2019-05-18T02:01:47.878Z,14.59
2019-05-18T02:02:47.914Z,14.61
2019-05-18T02:03:47.930Z,14.56
2019-05-18T02:04:47.966Z,14.52
2019-05-18T02:05:47.997Z,14.60
2019-05-18T02:06:48.033Z,14.56
2019-05-18T02:07:48.064Z,14.52
2019-05-18T02:08:48.103Z,14.44
2019-05-18T02:09:48.132Z,14.44
2019-05-18T02:10:48.173Z,14.46
2019-05-18T02:11:48.204Z,14.45
2019-05-18T02:12:48.237Z,14.46
2019-05-18T02:13:48.269Z,14.46
2019-05-18T02:14:48.303Z,14.39
2019-05-18T02:15:48.321Z,14.38
2019-05-18T02:16:48.370Z,14.44
2019-05-18T02:17:48.397Z,14.29
2019-05-18T02:18:48.437Z,14.31
2019-05-18T02:19:48.464Z,14.30
2019-05-18T02:20:48.503Z,14.38
2019-05-18T02:21:48.537Z,14.36
2019-05-18T02:22:48.571Z,14.29
2019-05-18T02:23:48.606Z,14.35
2019-05-18T02:24:48.633Z,14.34
2019-05-18T02:25:48.665Z,14.27
2019-05-18T02:26:48.691Z,14.30
2019-05-18T02:27:48.717Z,14.31
2019-05-18T02:28:48.762Z,14.29
2019-05-18T02:29:48.798Z,14.23
2019-05-18T02:30:48.831Z,14.24
2019-05-18T02:31:48.860Z,14.30
2019-05-18T02:32:48.891Z,14.20
2019-05-18T02:33:48.924Z,14.20
2019-05-18T02:34:48.943Z,14.31
2019-05-18T02:35:49.004Z,14.27
2019-05-18T02:36:49.021Z,14.31
2019-05-18T02:37:49.059Z,14.29
2019-05-18T02:38:49.103Z,14.24
2019-05-18T02:39:49.122Z,14.26
2019-05-18T02:40:49.163Z,14.23
2019-05-18T02:41:49.196Z,14.20
2019-05-18T02:42:49.209Z,14.21
2019-05-18T02:43:49.254Z,14.20
2019-05-18T02:44:49.272Z,14.20
2019-05-18T02:45:49.311Z,14.20
2019-05-18T02:46:49.340Z,14.23
2019-05-18T02:47:49.378Z,14.17
2019-05-18T02:48:50.795Z,14.16
2019-05-18T02:49:49.449Z,14.16
2019-05-18T02:50:49.483Z,14.20
2019-05-18T02:51:49.514Z,14.19
2019-05-18T02:52:49.546Z,14.16
2019-05-18T02:53:49.608Z,14.16
2019-05-18T02:54:49.632Z,14.16
2019-05-18T02:55:49.645Z,14.12
2019-05-18T02:56:49.668Z,14.13
2019-05-18T02:57:49.722Z,14.11
2019-05-18T02:58:49.744Z,14.04
2019-05-18T02:59:49.777Z,14.04
2019-05-18T03:00:49.815Z,14.11
2019-05-18T03:01:49.841Z,14.08
2019-05-18T03:02:49.909Z,14.08
2019-05-18T03:03:49.896Z,13.99
2019-05-18T03:04:49.943Z,14.02
2019-05-18T03:05:49.973Z,14.12
2019-05-18T03:06:50.004Z,14.04
2019-05-18T03:07:50.046Z,13.98
2019-05-18T03:08:50.067Z,14.04
2019-05-18T03:09:50.101Z,14.04
2019-05-18T03:10:50.134Z,13.99
2019-05-18T03:11:50.168Z,13.94
2019-05-18T03:12:50.196Z,13.94
2019-05-18T03:13:50.229Z,14.02
2019-05-18T03:14:50.264Z,13.94
2019-05-18T03:15:50.294Z,13.91
2019-05-18T03:16:50.324Z,13.91
2019-05-18T03:17:50.363Z,13.90
2019-05-18T03:19:06.922Z,13.93
2019-05-18T03:19:50.427Z,13.96
2019-05-18T03:20:50.470Z,13.98
2019-05-18T03:21:50.482Z,13.91
2019-05-18T03:22:50.524Z,13.98
2019-05-18T03:23:50.561Z,13.94
2019-05-18T03:24:50.578Z,13.93
2019-05-18T03:25:50.629Z,14.02
2019-05-18T03:26:50.652Z,13.91
2019-05-18T03:27:50.680Z,13.93
2019-05-18T03:28:50.719Z,13.94
2019-05-18T03:29:50.751Z,13.93
2019-05-18T03:30:50.770Z,13.94
2019-05-18T03:31:50.816Z,13.91
2019-05-18T03:32:50.852Z,13.98
2019-05-18T03:33:50.891Z,13.88
2019-05-18T03:34:50.913Z,13.94
2019-05-18T03:35:50.946Z,13.90
2019-05-18T03:36:50.975Z,13.96
2019-05-18T03:37:51.019Z,13.93
2019-05-18T03:38:51.045Z,13.91
2019-05-18T03:39:51.096Z,13.91
2019-05-18T03:40:51.097Z,13.98
2019-05-18T03:41:51.144Z,13.96
2019-05-18T03:42:51.172Z,13.99
2019-05-18T03:43:51.207Z,13.98
2019-05-18T03:44:51.230Z,13.90
2019-05-18T03:45:51.262Z,13.99
2019-05-18T03:46:51.294Z,13.91
2019-05-18T03:47:51.334Z,13.98
2019-05-18T03:48:51.368Z,13.91
2019-05-18T03:49:51.411Z,14.01
2019-05-18T03:50:51.444Z,13.98
2019-05-18T03:51:51.467Z,13.96
2019-05-18T03:52:51.498Z,14.02
2019-05-18T03:53:51.531Z,13.96
2019-05-18T03:54:51.566Z,13.99
2019-05-18T03:55:51.598Z,13.99
2019-05-18T03:56:51.626Z,13.94
2019-05-18T03:57:51.665Z,13.91
2019-05-18T03:58:51.695Z,14.04
2019-05-18T03:59:51.745Z,13.94
2019-05-18T04:00:51.758Z,13.99
2019-05-18T04:01:51.783Z,14.01
2019-05-18T04:02:51.835Z,13.88
2019-05-18T04:03:51.858Z,14.04
2019-05-18T04:04:51.880Z,13.88
2019-05-18T04:05:51.920Z,13.91
2019-05-18T04:06:51.946Z,13.99
2019-05-18T04:07:51.998Z,13.99
2019-05-18T04:08:52.014Z,13.99
2019-05-18T04:09:52.050Z,13.98
2019-05-18T04:10:52.067Z,13.88
2019-05-18T04:11:52.115Z,13.96
2019-05-18T04:12:52.142Z,13.96
2019-05-18T04:13:52.179Z,13.90
2019-05-18T04:14:52.212Z,13.93
2019-05-18T04:15:52.244Z,14.04
2019-05-18T04:16:52.273Z,13.94
2019-05-18T04:17:52.313Z,13.93
2019-05-18T04:18:52.343Z,13.99
2019-05-18T04:19:52.397Z,13.99
2019-05-18T04:20:52.406Z,13.96
2019-05-18T04:21:52.440Z,14.04
2019-05-18T04:22:52.471Z,14.06
2019-05-18T04:23:52.529Z,14.08
2019-05-18T04:24:52.550Z,14.11
2019-05-18T04:25:52.566Z,14.12
2019-05-18T04:26:52.588Z,14.12
2019-05-18T04:27:52.643Z,14.13
2019-05-18T04:28:52.666Z,14.09
2019-05-18T04:29:52.697Z,14.05
2019-05-18T04:30:52.729Z,14.09
2019-05-18T04:31:52.763Z,14.13
2019-05-18T04:32:52.809Z,14.12
2019-05-18T04:33:52.825Z,14.12
2019-05-18T04:34:52.862Z,14.23
2019-05-18T04:35:52.891Z,14.23
2019-05-18T04:36:52.924Z,14.12
2019-05-18T04:37:52.960Z,14.17
2019-05-18T04:38:52.994Z,14.17
2019-05-18T04:39:53.020Z,14.26
2019-05-18T04:40:53.058Z,14.16
2019-05-18T04:41:53.086Z,14.21
2019-05-18T04:42:53.107Z,14.24
2019-05-18T04:43:53.162Z,14.24
2019-05-18T04:44:53.176Z,14.23
2019-05-18T04:45:53.248Z,14.27
2019-05-18T04:46:53.249Z,14.26
2019-05-18T04:47:53.283Z,14.30
2019-05-18T04:48:53.315Z,14.31
2019-05-18T04:50:04.599Z,14.26
2019-05-18T04:50:53.389Z,14.30
2019-05-18T04:51:53.418Z,14.30
2019-05-18T04:52:53.447Z,14.30
2019-05-18T04:53:53.481Z,14.31
2019-05-18T04:54:53.514Z,14.30
2019-05-18T04:55:53.531Z,14.34
2019-05-18T04:56:53.584Z,14.31
2019-05-18T04:57:53.614Z,14.29
2019-05-18T04:58:53.653Z,14.44
2019-05-18T04:59:53.674Z,14.39
2019-05-18T05:00:53.711Z,14.41
2019-05-18T05:01:53.750Z,14.42
2019-05-18T05:02:53.768Z,14.34
2019-05-18T05:03:53.815Z,14.41
2019-05-18T05:04:56.601Z,14.44
2019-05-18T05:05:53.873Z,14.42
2019-05-18T05:06:53.904Z,14.42
2019-05-18T05:07:53.936Z,14.41
2019-05-18T05:08:53.968Z,14.52
2019-05-18T05:09:53.992Z,14.42
2019-05-18T05:10:54.033Z,14.44
2019-05-18T05:11:54.058Z,14.44
2019-05-18T05:12:54.097Z,14.53
2019-05-18T05:13:54.138Z,14.49
2019-05-18T05:14:54.163Z,14.53
2019-05-18T05:15:54.199Z,14.59
2019-05-18T05:16:54.226Z,14.61
2019-05-18T05:17:54.273Z,14.52
2019-05-18T05:18:54.302Z,14.59
2019-05-18T05:19:54.333Z,14.60
2019-05-18T05:20:54.351Z,14.60
2019-05-18T05:21:54.387Z,14.60
2019-05-18T05:22:54.427Z,14.57
2019-05-18T05:23:54.458Z,14.54
2019-05-18T05:24:54.495Z,14.56
2019-05-18T05:25:54.527Z,14.57
2019-05-18T05:26:54.558Z,14.61
2019-05-18T05:27:54.594Z,14.61
2019-05-18T05:28:54.623Z,14.74
2019-05-18T05:29:54.697Z,14.72
2019-05-18T05:30:54.703Z,14.71
2019-05-18T05:31:54.711Z,14.69
2019-05-18T05:32:54.779Z,14.71
2019-05-18T05:33:54.785Z,14.71
2019-05-18T05:34:54.811Z,14.79
2019-05-18T05:35:54.870Z,14.85
2019-05-18T05:36:54.886Z,14.86
2019-05-18T05:37:54.928Z,14.79
2019-05-18T05:38:54.953Z,14.83
2019-05-18T05:39:54.978Z,14.86
2019-05-18T05:40:55.018Z,14.87
2019-05-18T05:41:55.059Z,14.87
2019-05-18T05:42:55.081Z,14.82
2019-05-18T05:43:55.115Z,14.87
2019-05-18T05:44:55.147Z,14.90
2019-05-18T05:45:55.181Z,14.95
2019-05-18T05:46:55.217Z,14.90
2019-05-18T05:47:55.250Z,14.98
2019-05-18T05:48:55.283Z,14.86
2019-05-18T05:49:55.319Z,14.95
2019-05-18T05:50:55.340Z,14.94
2019-05-18T05:51:55.384Z,15.00
2019-05-18T05:52:55.414Z,14.91
2019-05-18T05:53:55.448Z,14.97
2019-05-18T05:54:55.485Z,15.04
2019-05-18T05:55:55.506Z,15.03
2019-05-18T05:56:55.548Z,15.07
2019-05-18T05:57:55.582Z,15.04
2019-05-18T05:58:55.611Z,15.03
2019-05-18T05:59:55.644Z,15.09
2019-05-18T06:00:55.675Z,15.15
2019-05-18T06:01:55.709Z,15.12
2019-05-18T06:02:55.751Z,15.20
2019-05-18T06:03:55.778Z,15.18
2019-05-18T06:04:55.812Z,15.18
2019-05-18T06:05:55.841Z,15.16
2019-05-18T06:06:55.878Z,15.19
2019-05-18T06:07:55.906Z,15.27
2019-05-18T06:08:55.941Z,15.25
2019-05-18T06:09:55.971Z,15.38
2019-05-18T06:10:56.000Z,15.35
2019-05-18T06:11:56.034Z,15.41
2019-05-18T06:12:56.072Z,15.43
2019-05-18T06:13:56.136Z,15.44
2019-05-18T06:14:56.131Z,15.46
2019-05-18T06:15:56.175Z,15.51
2019-05-18T06:16:56.209Z,15.44
2019-05-18T06:17:56.229Z,15.52
2019-05-18T06:18:56.270Z,15.56
2019-05-18T06:19:56.302Z,15.53
2019-05-18T06:20:56.350Z,15.55
2019-05-18T06:21:56.373Z,15.62
2019-05-18T06:22:56.403Z,15.64
2019-05-18T06:23:56.429Z,15.62
2019-05-18T06:24:56.481Z,15.64
2019-05-18T06:25:56.509Z,15.70
2019-05-18T06:26:56.544Z,15.77
2019-05-18T06:27:56.573Z,15.77
2019-05-18T06:28:56.609Z,15.73
2019-05-18T06:29:56.646Z,15.85
2019-05-18T06:30:56.679Z,15.89
2019-05-18T06:31:56.701Z,15.88
2019-05-18T06:32:56.737Z,15.91
2019-05-18T06:33:56.769Z,15.98
2019-05-18T06:34:56.814Z,15.99
2019-05-18T06:35:56.842Z,15.96
2019-05-18T06:36:56.920Z,15.96
2019-05-18T06:37:56.933Z,15.96
2019-05-18T06:38:57.001Z,16.07
2019-05-18T06:39:57.016Z,16.08
2019-05-18T06:40:57.034Z,16.10
2019-05-18T06:41:57.078Z,16.10
2019-05-18T06:42:57.081Z,16.18
2019-05-18T06:43:58.458Z,16.30
2019-05-18T06:44:57.146Z,16.25
2019-05-18T06:45:57.184Z,16.36
2019-05-18T06:46:57.214Z,16.25
2019-05-18T06:47:57.242Z,16.30
2019-05-18T06:48:57.284Z,16.45
2019-05-18T06:49:57.321Z,16.41
2019-05-18T06:51:06.918Z,16.42
2019-05-18T06:51:57.383Z,16.48
2019-05-18T06:52:57.415Z,16.55
2019-05-18T06:53:57.441Z,16.52
2019-05-18T06:54:57.476Z,16.57
2019-05-18T06:55:57.521Z,16.59
2019-05-18T06:56:57.554Z,16.69
2019-05-18T06:57:57.581Z,16.69
2019-05-18T06:58:57.630Z,16.67
2019-05-18T06:59:57.650Z,16.77
2019-05-18T07:00:57.683Z,16.84
2019-05-18T07:01:57.719Z,16.80
2019-05-18T07:02:57.755Z,16.75
2019-05-18T07:03:57.787Z,16.85
2019-05-18T07:04:57.811Z,16.82
2019-05-18T07:05:57.851Z,16.90
2019-05-18T07:06:57.877Z,16.87
2019-05-18T07:07:57.921Z,16.90
2019-05-18T07:08:57.959Z,16.98
2019-05-18T07:09:57.994Z,16.96
2019-05-18T07:10:58.019Z,17.07
2019-05-18T07:11:58.058Z,17.06
2019-05-18T07:12:58.089Z,17.05
2019-05-18T07:13:58.122Z,17.09
2019-05-18T07:15:00.331Z,17.14
2019-05-18T07:15:58.201Z,17.27
2019-05-18T07:16:58.228Z,17.25
2019-05-18T07:17:58.268Z,17.17
2019-05-18T07:18:58.301Z,17.21
2019-05-18T07:19:58.331Z,17.35
2019-05-18T07:20:58.364Z,17.25
2019-05-18T07:21:58.402Z,17.38
2019-05-18T07:22:58.433Z,17.38
2019-05-18T07:23:58.470Z,17.45
2019-05-18T07:24:58.502Z,17.49
2019-05-18T07:25:58.536Z,17.51
2019-05-18T07:26:58.575Z,17.55
2019-05-18T07:27:58.603Z,17.62
2019-05-18T07:28:58.636Z,17.66
2019-05-18T07:29:58.677Z,17.76
2019-05-18T07:30:58.705Z,17.74
2019-05-18T07:31:58.735Z,17.76
2019-05-18T07:32:58.773Z,17.76
2019-05-18T07:33:58.815Z,17.81
2019-05-18T07:34:58.886Z,17.81
2019-05-18T07:35:58.883Z,17.81
2019-05-18T07:36:58.899Z,17.95
2019-05-18T07:37:58.951Z,17.98
2019-05-18T07:38:58.982Z,17.95
2019-05-18T07:39:59.018Z,18.14
2019-05-18T07:40:59.037Z,18.16
2019-05-18T07:41:59.087Z,18.21
2019-05-18T07:42:59.118Z,18.23
2019-05-18T07:43:59.157Z,18.34
2019-05-18T07:44:59.188Z,18.38
2019-05-18T07:45:59.237Z,18.46
2019-05-18T07:46:59.247Z,18.49
2019-05-18T07:47:59.294Z,18.59
2019-05-18T07:48:59.330Z,18.59
2019-05-18T07:49:59.356Z,18.68
2019-05-18T07:50:59.389Z,18.79
2019-05-18T07:51:59.440Z,18.83
2019-05-18T07:52:59.465Z,18.82
2019-05-18T07:53:59.499Z,18.89
2019-05-18T07:54:59.545Z,18.91
2019-05-18T07:55:59.574Z,19.01
2019-05-18T07:56:59.599Z,19.02
2019-05-18T07:57:59.644Z,19.09
2019-05-18T07:58:59.681Z,19.07
2019-05-18T07:59:59.715Z,19.15
2019-05-18T08:00:59.756Z,19.17
2019-05-18T08:01:59.785Z,19.21
2019-05-18T08:02:59.817Z,19.20
2019-05-18T08:03:59.854Z,19.24
2019-05-18T08:04:59.911Z,19.43
2019-05-18T08:05:59.931Z,19.46
2019-05-18T08:06:59.967Z,19.50
2019-05-18T08:07:59.994Z,19.42
2019-05-18T08:09:00.032Z,19.58
2019-05-18T08:10:00.067Z,19.61
2019-05-18T08:11:00.101Z,19.62
2019-05-18T08:12:00.128Z,19.68
2019-05-18T08:13:00.174Z,19.82
2019-05-18T08:14:00.209Z,19.75
2019-05-18T08:15:00.245Z,19.86
2019-05-18T08:16:00.282Z,19.89
2019-05-18T08:17:00.313Z,19.92
2019-05-18T08:18:00.350Z,20.02
2019-05-18T08:19:00.379Z,20.00
2019-05-18T08:20:00.427Z,20.05
2019-05-18T08:21:00.458Z,20.17
2019-05-18T08:22:00.490Z,20.16
2019-05-18T08:23:00.528Z,20.15
2019-05-18T08:24:00.564Z,20.20
2019-05-18T08:25:00.604Z,20.31
2019-05-18T08:26:00.638Z,20.30
2019-05-18T08:27:02.333Z,20.42
2019-05-18T08:28:00.713Z,20.46
2019-05-18T08:29:00.766Z,20.56
2019-05-18T08:30:00.780Z,20.64
2019-05-18T08:31:00.803Z,20.61
2019-05-18T08:32:00.846Z,20.73
2019-05-18T08:33:00.889Z,20.83
2019-05-18T08:34:00.914Z,20.79
2019-05-18T08:35:00.966Z,20.94
2019-05-18T08:36:01.002Z,20.90
2019-05-18T08:37:01.014Z,20.85
2019-05-18T08:38:01.068Z,21.03
2019-05-18T08:39:01.109Z,21.03
2019-05-18T08:40:01.135Z,21.06
2019-05-18T08:41:01.162Z,21.06
2019-05-18T08:42:01.203Z,21.12
2019-05-18T08:43:01.248Z,21.19
2019-05-18T08:44:01.270Z,21.12
2019-05-18T08:45:01.322Z,21.27
2019-05-18T08:46:01.374Z,21.30
2019-05-18T08:47:01.500Z,21.36
2019-05-18T08:48:01.461Z,21.36
2019-05-18T08:49:01.505Z,21.42
2019-05-18T08:50:01.527Z,21.52
2019-05-18T08:51:01.550Z,21.51
2019-05-18T08:52:08.448Z,21.51
2019-05-18T08:53:01.600Z,21.58
2019-05-18T08:54:01.638Z,21.51
2019-05-18T08:55:01.672Z,21.51
2019-05-18T08:56:01.709Z,21.59
2019-05-18T08:57:01.746Z,21.58
2019-05-18T08:58:01.803Z,21.63
2019-05-18T08:59:01.818Z,21.67
2019-05-18T09:00:01.908Z,21.75
2019-05-18T09:01:01.908Z,21.82
2019-05-18T09:02:01.937Z,21.85
2019-05-18T09:03:01.970Z,21.90
2019-05-18T09:04:02.016Z,22.05
2019-05-18T09:05:04.825Z,21.99
2019-05-18T09:06:02.091Z,22.12
2019-05-18T09:07:02.132Z,22.20
2019-05-18T09:08:02.145Z,22.29
2019-05-18T09:09:02.186Z,22.36
2019-05-18T09:10:02.231Z,22.42
2019-05-18T09:11:02.278Z,22.48
2019-05-18T09:12:02.398Z,22.57
2019-05-18T09:13:02.386Z,22.57
2019-05-18T09:14:02.368Z,22.64
2019-05-18T09:15:02.425Z,22.79
2019-05-18T09:16:02.457Z,22.76
2019-05-18T09:17:02.486Z,22.91
2019-05-18T09:18:04.837Z,22.97
2019-05-18T09:19:02.586Z,23.00
2019-05-18T09:20:02.589Z,23.01
2019-05-18T09:21:02.638Z,23.07
2019-05-18T09:22:02.669Z,23.14
2019-05-18T09:23:02.692Z,23.22
2019-05-18T09:24:02.738Z,23.29
2019-05-18T09:25:02.819Z,23.29
2019-05-18T09:26:02.827Z,23.29
2019-05-18T09:27:02.850Z,23.47
2019-05-18T09:28:02.892Z,23.47
2019-05-18T09:29:02.992Z,23.57
2019-05-18T09:30:03.103Z,23.57
2019-05-18T09:31:03.045Z,23.60
2019-05-18T09:32:03.041Z,23.63
2019-05-18T09:33:03.076Z,23.72
2019-05-18T09:34:03.130Z,23.77
2019-05-18T09:35:03.193Z,23.72
2019-05-18T09:36:03.201Z,23.77
2019-05-18T09:37:03.239Z,23.75
2019-05-18T09:38:03.279Z,23.86
2019-05-18T09:39:03.318Z,23.87
2019-05-18T09:40:03.350Z,23.84
2019-05-18T09:41:03.386Z,23.82
2019-05-18T09:42:03.427Z,23.94
2019-05-18T09:43:03.454Z,23.97
2019-05-18T09:44:03.488Z,23.99
2019-05-18T09:45:03.531Z,24.06
2019-05-18T09:46:03.570Z,24.06
2019-05-18T09:47:03.624Z,24.16
2019-05-18T09:48:03.716Z,24.14
2019-05-18T09:49:03.677Z,24.18
2019-05-18T09:50:03.717Z,24.15
2019-05-18T09:51:03.772Z,24.14
2019-05-18T09:52:03.997Z,24.19
2019-05-18T09:53:04.174Z,24.18
2019-05-18T09:54:03.866Z,24.30
2019-05-18T09:55:03.922Z,24.34
2019-05-18T09:56:03.953Z,24.36
2019-05-18T09:57:03.982Z,24.41
2019-05-18T09:58:04.024Z,24.41
2019-05-18T09:59:04.060Z,24.48
2019-05-18T10:00:04.100Z,24.46
2019-05-18T10:01:04.156Z,24.44
2019-05-18T10:02:04.172Z,24.61
2019-05-18T10:03:04.214Z,24.59
2019-05-18T10:04:04.259Z,24.61
2019-05-18T10:05:04.276Z,24.74
2019-05-18T10:06:04.361Z,24.86
2019-05-18T10:07:04.366Z,24.86
2019-05-18T10:08:04.415Z,24.92
2019-05-18T10:09:04.445Z,24.99
2019-05-18T10:10:04.483Z,25.04
2019-05-18T10:11:04.536Z,25.07
2019-05-18T10:12:04.566Z,25.07
2019-05-18T10:13:04.607Z,25.19
2019-05-18T10:14:04.668Z,25.20
2019-05-18T10:15:04.694Z,25.39
2019-05-18T10:16:04.715Z,25.38
2019-05-18T10:17:04.753Z,25.44
2019-05-18T10:18:04.788Z,25.45
2019-05-18T10:19:04.831Z,25.53
2019-05-18T10:20:04.868Z,25.63
2019-05-18T10:21:04.923Z,25.60
2019-05-18T10:22:04.942Z,25.61
2019-05-18T10:23:13.265Z,25.63
2019-05-18T10:24:05.024Z,25.69
2019-05-18T10:25:05.072Z,25.81
2019-05-18T10:26:05.101Z,25.82
2019-05-18T10:27:05.136Z,25.85
2019-05-18T10:28:05.182Z,26.01
2019-05-18T10:29:05.214Z,26.04
2019-05-18T10:30:05.260Z,26.13
2019-05-18T10:31:05.308Z,26.17
2019-05-18T10:32:05.337Z,26.23
2019-05-18T10:33:05.378Z,26.29
2019-05-18T10:34:05.415Z,26.28
2019-05-18T10:35:05.462Z,26.38
2019-05-18T10:36:05.489Z,26.44
2019-05-18T10:37:05.540Z,26.41
2019-05-18T10:38:05.585Z,26.46
2019-05-18T10:39:05.609Z,26.53
2019-05-18T10:40:05.663Z,26.64
2019-05-18T10:41:05.695Z,26.54
2019-05-18T10:42:05.735Z,26.66
2019-05-18T10:43:05.782Z,26.65
2019-05-18T10:44:05.804Z,26.64
2019-05-18T10:45:05.856Z,26.69
2019-05-18T10:46:05.898Z,26.61
2019-05-18T10:47:05.937Z,26.61
2019-05-18T10:48:05.983Z,26.64
2019-05-18T10:49:06.005Z,26.65
2019-05-18T10:50:06.041Z,26.59
2019-05-18T10:51:06.097Z,26.59
2019-05-18T10:52:06.130Z,26.54
2019-05-18T10:53:06.190Z,26.66
2019-05-18T10:54:06.205Z,26.72
2019-05-18T10:55:06.253Z,26.66
2019-05-18T10:56:06.289Z,26.84
2019-05-18T10:57:06.373Z,26.88
2019-05-18T10:58:06.377Z,26.91
2019-05-18T10:59:06.406Z,26.93
2019-05-18T11:00:06.475Z,26.98
2019-05-18T11:01:06.483Z,26.98
2019-05-18T11:02:06.528Z,27.09
2019-05-18T11:03:06.567Z,27.21
2019-05-18T11:04:06.603Z,27.13
2019-05-18T11:05:06.646Z,27.06
2019-05-18T11:06:06.691Z,27.02
2019-05-18T11:07:06.725Z,26.90
2019-05-18T11:08:06.769Z,26.96
2019-05-18T11:09:06.803Z,26.91
2019-05-18T11:10:06.837Z,27.01
2019-05-18T11:11:06.888Z,26.98
2019-05-18T11:12:06.951Z,27.03
2019-05-18T11:13:06.959Z,27.02
2019-05-18T11:14:07.013Z,27.13
2019-05-18T11:15:07.047Z,27.25
2019-05-18T11:16:07.088Z,27.31
2019-05-18T11:17:07.123Z,27.38
2019-05-18T11:18:07.208Z,27.30
2019-05-18T11:19:07.203Z,27.38
2019-05-18T11:20:07.244Z,27.24
2019-05-18T11:21:07.282Z,27.31
2019-05-18T11:22:07.321Z,27.20
2019-05-18T11:23:07.363Z,27.18
2019-05-18T11:24:07.403Z,27.16
2019-05-18T11:25:07.445Z,27.09
2019-05-18T11:26:07.489Z,27.05
2019-05-18T11:27:07.525Z,27.09
2019-05-18T11:28:07.561Z,27.06
2019-05-18T11:29:07.604Z,27.08
2019-05-18T11:30:07.991Z,27.16
2019-05-18T11:31:07.675Z,27.11
2019-05-18T11:32:07.728Z,27.21
2019-05-18T11:33:07.752Z,27.21
2019-05-18T11:34:07.825Z,27.23
2019-05-18T11:35:07.845Z,27.23
2019-05-18T11:36:07.881Z,27.23
2019-05-18T11:37:07.925Z,27.27
2019-05-18T11:38:07.963Z,27.30
2019-05-18T11:39:08.007Z,27.23
2019-05-18T11:40:08.042Z,27.24
2019-05-18T11:41:08.079Z,27.27
2019-05-18T11:42:08.119Z,27.27
2019-05-18T11:43:08.160Z,27.27
2019-05-18T11:44:10.806Z,27.24
2019-05-18T11:45:08.266Z,27.23
2019-05-18T11:46:08.281Z,27.20
2019-05-18T11:47:08.313Z,27.12
2019-05-18T11:48:08.371Z,27.05
2019-05-18T11:49:08.392Z,27.06
2019-05-18T11:50:08.465Z,26.98
2019-05-18T11:51:08.486Z,26.91
2019-05-18T11:52:08.520Z,26.93
2019-05-18T11:53:08.555Z,26.91
2019-05-18T11:54:08.618Z,26.87
2019-05-18T11:55:08.632Z,26.87
2019-05-18T11:56:08.689Z,26.83
2019-05-18T11:57:08.717Z,26.83
2019-05-18T11:58:08.763Z,26.90
2019-05-18T11:59:08.802Z,26.81
2019-05-18T12:00:08.848Z,26.84
2019-05-18T12:01:08.889Z,26.83
2019-05-18T12:02:08.927Z,26.78
2019-05-18T12:03:08.974Z,26.81
2019-05-18T12:04:08.998Z,26.72
2019-05-18T12:05:09.031Z,26.75
2019-05-18T12:06:09.081Z,26.90
2019-05-18T12:07:09.113Z,26.88
2019-05-18T12:08:09.161Z,26.94
2019-05-18T12:09:09.216Z,26.93
2019-05-18T12:10:09.247Z,26.93
2019-05-18T12:11:09.282Z,27.03
2019-05-18T12:12:09.327Z,26.98
2019-05-18T12:13:09.347Z,26.93
2019-05-18T12:14:09.407Z,26.94
2019-05-18T12:15:09.430Z,26.93
2019-05-18T12:16:09.483Z,26.94
2019-05-18T12:17:09.509Z,26.98
2019-05-18T12:18:09.569Z,26.98
2019-05-18T12:19:09.631Z,27.08
2019-05-18T12:20:09.654Z,27.15
2019-05-18T12:21:09.685Z,27.18
2019-05-18T12:22:09.721Z,27.12
2019-05-18T12:23:09.774Z,27.11
2019-05-18T12:24:15.538Z,27.08
2019-05-18T12:25:09.841Z,27.03
2019-05-18T12:26:09.877Z,27.02
2019-05-18T12:27:09.923Z,26.98
2019-05-18T12:28:09.968Z,26.94
2019-05-18T12:29:10.014Z,26.91
2019-05-18T12:30:10.066Z,26.88
2019-05-18T12:31:10.085Z,26.96
2019-05-18T12:32:10.128Z,26.98
2019-05-18T12:33:10.156Z,26.97
2019-05-18T12:34:10.204Z,26.93
2019-05-18T12:35:10.243Z,26.78
2019-05-18T12:36:10.279Z,26.84
2019-05-18T12:37:10.320Z,26.86
2019-05-18T12:38:10.367Z,26.81
2019-05-18T12:39:10.420Z,26.84
2019-05-18T12:40:10.447Z,26.84
2019-05-18T12:41:10.481Z,26.81
2019-05-18T12:42:10.519Z,26.83
2019-05-18T12:43:10.546Z,26.84
2019-05-18T12:44:10.600Z,26.79
2019-05-18T12:45:10.640Z,26.79
2019-05-18T12:46:10.686Z,26.78
2019-05-18T12:47:14.172Z,26.78
2019-05-18T12:48:10.761Z,26.75
2019-05-18T12:49:10.803Z,26.83
2019-05-18T12:50:10.844Z,26.81
2019-05-18T12:51:10.882Z,26.87
2019-05-18T12:52:10.923Z,26.79
2019-05-18T12:53:10.953Z,26.90